Tiempo atmosférico en la estación meteorológica de Barcelona Aeropuerto, Barcelona (4 m.)



Fecha
DESCASC
Temp. máxima en grados centígrados (hora)
DESCASC
Temp. mínima en grados centígrados (hora)
DESCASC
Temp. media en grados centígrados
DESCASC
Racha de viento máxima en m/sg (hora)
DESCASC
Velocidad máxima media en intervalos de 10 minutos(hora)
DESCASC
Precipitaciones diarias en mm
DESCASC
Precipitaciones de 00:00 a 06:00 en mm
DESCASC
Precipitaciones de 06:00 a 12:00 en mm
DESCASC
Precipitaciones de 12:00 a 18:00 en mm
DESCASC
Precipitaciones de 18:00 a 24:00 en mm
DESCASC
31-03-2020 13 (12:50) 8.2 (01:20) 10.6 16.11 (20:00) 11.67 (20:10) 2.7 0 0 2.6 0.1
30-03-2020 15.1 (00:20) 8 (18:50) 11.6 14.44 (03:50) 11.67 (04:20) 5.8 0 3.3 2.5 0
29-03-2020 19.1 (17:10) 8.9 (00:00) 14 7.78 (15:30) 6.11 (10:20) 0 0 0 0 0
28-03-2020 17.4 (11:30) 10 (00:00) 13.7 8.33 (23:30) 6.11 (23:30) 0 0 0 0 0
27-03-2020 16.2 (13:20) 3.7 (00:00) 10 8.89 (06:50) 6.67 (06:50) 0 0 0 0 0
26-03-2020 13 (11:30) 5 (00:00) 9 16.11 (14:00) 12.78 (15:20) 0 0 0 0 0
25-03-2020 13.6 (13:50) 6 (00:00) 9.8 12.78 (07:10) 8.61 (08:10) 0 0 0 0 0
24-03-2020 15.1 (12:40) 11 (00:00) 13.1 15 (19:50) 11.67 (19:10) 0 0 0 0 0
23-03-2020 16.4 (15:30) 11.6 (00:00) 14 15.28 (20:10) 11.94 (20:10) 20.8 0.3 20.2 0.2 0.1
22-03-2020 16.9 (14:20) 9.8 (06:20) 13.3 10.83 (14:00) 8.61 (14:00) 3.5 0 0 0 3.5
21-03-2020 17.1 (14:30) 7.2 (00:00) 12.2 8.33 (12:00) 6.39 (15:00) 0 0 0 0 0
20-03-2020 16.5 (14:00) 8.5 (00:00) 12.5 9.17 (12:20) 6.67 (11:50) 0 0 0 0 0
19-03-2020 15.8 (13:40) 8.2 (00:00) 12 6.67 (12:30) 5 (08:10) 0 0 0 0 0
18-03-2020 17.5 (14:20) 10.4 (00:00) 13.9 7.22 (10:50) 4.72 (11:30) 0 0 0 0 0
17-03-2020 17.4 (16:10) 13.1 (00:00) 15.3 16.11 (00:10) 11.67 (00:10) 0 0 0 0 0
16-03-2020 15.2 (12:40) 13.4 (00:00) 14.3 17.5 (11:40) 12.5 (19:20) 18 0 0.2 17.8 0
15-03-2020 17.3 (13:30) 8.9 (00:00) 13.1 7.22 (15:20) 5.28 (15:50) 0 0 0 0 0
14-03-2020 18.4 (13:00) 11.1 (00:00) 14.8 7.22 (10:40) 5 (17:10) 0 0 0 0 0
13-03-2020 17.5 (13:20) 10.2 (06:30) 13.8 13.33 (16:50) 10.28 (17:20) 0 0 0 0 0
12-03-2020 17 (10:20) 10.4 (00:00) 13.7 8.89 (11:20) 6.94 (11:20) 0 0 0 0 0
11-03-2020 16.8 (14:50) 8.7 (00:00) 12.7 7.78 (11:00) 5 (05:40) 0 0 0 0 0
10-03-2020 15.9 (11:10) 9.3 (00:00) 12.6 11.67 (14:50) 9.17 (14:40) 0 0 0 0 0
09-03-2020 21.1 (16:20) 9.1 (00:00) 15.1 13.33 (18:00) 10 (16:40) 0 0 0 0 0
08-03-2020 17 (14:50) 8.2 (00:00) 12.6 9.17 (17:50) 6.67 (16:10) 0 0 0 0 0
07-03-2020 18.8 (14:50) 6.3 (00:00) 12.5 11.39 (15:30) 8.33 (15:30) 0 0 0 0 0
06-03-2020 17.9 (14:30) 8.3 (00:00) 13.1 19.72 (16:40) 15.56 (15:50) 0 0 0 0 0
05-03-2020 20 (14:40) 9.8 (00:00) 14.9 23.61 (17:50) 14.17 (17:50) 0 0 0 0 0
04-03-2020 18 (11:10) 9.8 (00:00) 13.9 6.11 (14:00) 5 (18:30) 0 0 0 0 0
03-03-2020 18 (18:20) 8.2 (00:00) 13.1 20 (19:00) 13.61 (18:10) 0 0 0 0 0

Gráficas

Temp. máximas Temp. mínimas Temp. medias Precipitaciones Rachas de viento máximas Velocidades máximas media en intervalos de 10 minutos

Datos horarios

Fecha y hora oficial Temperatura (ºC) Velocidad del viento (km/h) Dirección del viento Racha (km/h) Dirección de racha Precipitación (mm) Presión (hPa) Tendencia (hPa) Humedad (%)
2020-04-01 23:00:00 11.1 34 Este 52 Este 0 1013.1 0.9 90
2020-04-01 22:00:00 11 42 Este 59 Este 0.1 1013.1 1.4 91
2020-04-01 21:00:00 10.9 38 Este 58 Este 0 1012.6 0 92
2020-04-01 20:00:00 10.9 46 Este 63 Este 0.2 1012.2 -0.2 92
2020-04-01 19:00:00 10.4 53 Este 68 Este 8.6 1011.7 -1 96
2020-04-01 18:00:00 10.8 43 Este 61 Este 3.3 1012.6 -0.3 95
2020-04-01 17:00:00 10.9 48 Este 63 Este 1.9 1012.4 -1 94
2020-04-01 16:00:00 10.8 51 Este 67 Este 1.3 1012.7 -1.3 93
2020-04-01 15:00:00 11.6 51 Este 65 Este 1 1012.9 -1.7 93
2020-04-01 14:00:00 12.7 48 Este 59 Este 0 1013.4 -1.3 88
2020-04-01 13:00:00 12.2 45 Este 59 Este 0 1014 -0.7 90
2020-04-01 12:00:00 12 46 Este 61 Este 0 1014.6 0.1 90
2020-04-01 11:00:00 11.9 44 Este 61 Este 0 1014.7 0.5 88
2020-04-01 10:00:00 11.9 44 Este 59 Este 0 1014.7 0.7 89
2020-04-01 09:00:00 11.7 43 Este 58 Este 0.1 1014.5 0.4 90
2020-04-01 08:00:00 11.9 42 Este 58 Este 0 1014.2 0 90
2020-04-01 07:00:00 12.2 45 Este 58 Este 0.2 1014 -0.2 91
2020-04-01 06:00:00 12.5 36 Este 52 Este 0 1014.1 -0.5 91
2020-04-01 05:00:00 12.5 39 Este 50 Este 0 1014.2 -0.6 91
2020-04-01 04:00:00 12.8 35 Este 55 Este 0 1014.2 -0.7 89
2020-04-01 03:00:00 12.9 35 Este 48 Este 0 1014.6 -0.3 88
2020-04-01 02:00:00 13 35 Este 45 Este 0 1014.8 0 86
2020-04-01 01:00:00 13 29 Este 39 Este 0 1014.9 0.5 83
2020-04-01 00:00:00 12.7 27 Este 41 Este 0.1 1014.9 1.1 82
2020-03-31 23:00:00 12.9 28 Este 42 Este 0 1014.8 1.5 80
2020-03-31 22:00:00 12.8 34 Este 48 Este 0 1014.4 1.2 80
2020-03-31 21:00:00 12.2 34 Este 54 Este 0 1013.8 1.3 82
2020-03-31 20:00:00 12.2 39 Este 58 Este 0 1013.3 0.8 80
2020-03-31 19:00:00 12.2 35 Este 54 Este 0 1013.2 0.2 80
2020-03-31 18:00:00 12.1 39 Este 48 Este 0.7 1012.5 -0.6 84
2020-03-31 17:00:00 11.9 35 Este 42 Este 1 1012.5 -1 84
2020-03-31 16:00:00 12 31 Este 42 Este 0.4 1013 -0.5 82
2020-03-31 15:00:00 11.6 35 Este 46 Este 0.3 1013.1 -0.3 81
2020-03-31 14:00:00 11.6 36 Este 52 Este 0.2 1013.5 -0.2 79
2020-03-31 13:00:00 13 38 Este 48 Este 0 1013.5 -0.3 65
2020-03-31 12:00:00 12.6 39 Este 52 Este 0 1013.4 -0.2 65
2020-03-31 11:00:00 12 36 Este 50 Este 0 1013.7 0.2 66
2020-03-31 10:00:00 11.1 33 Este 46 Este 0 1013.8 1.1 69
2020-03-31 09:00:00 10.7 36 Este 46 Este 0 1013.6 0.5 74
2020-03-31 08:00:00 10.8 30 Este 45 Este 0 1013.5 0.3 70
2020-03-31 07:00:00 10.7 35 Este 48 Este 0 1012.7 -0.9 68
2020-03-31 06:00:00 10.6 34 Este 46 Este 0 1013.1 -1 70
2020-03-31 05:00:00 10.5 34 Este 41 Este 0 1013.2 -0.9 68
2020-03-31 04:00:00 9.3 14 Nordeste 26 Este 0 1013.6 -1 85
2020-03-31 03:00:00 8.8 11 Norte 21 Norte 0 1014.1 -0.6 88
2020-03-31 02:00:00 8.2 15 Norte 32 Nordeste 0 1014.1 -0.7 87
2020-03-31 01:00:00 8.3 17 Norte 32 Nordeste 0 1014.6 -0.4 85
2020-03-31 00:00:00 8.5 17 Norte 26 Norte 0 1014.7 0.1 81
2020-03-30 23:00:00 8.4 17 Norte 26 Norte 0 1014.8 0.3 82
2020-03-30 22:00:00 8.3 15 Norte 22 Norte 0 1015 0.4 84
2020-03-30 21:00:00 8.2 16 Norte 24 Norte 0 1014.6 0 86
2020-03-30 20:00:00 8.2 17 Norte 22 Norte 0 1014.5 0 86
2020-03-30 19:00:00 8.1 12 Norte 28 Norte 0 1014.6 -0.2 87
2020-03-30 18:00:00 9.3 16 Norte 21 Norte 0.1 1014.6 -0.3 83
2020-03-30 17:00:00 9 12 Norte 24 Norte 0 1014.5 -0.2 83
2020-03-30 16:00:00 8.9 14 Norte 26 Norte 0.4 1014.8 0 87
2020-03-30 15:00:00 9.1 18 Norte 32 Norte 0.1 1014.9 0.3 85
2020-03-30 14:00:00 10 22 Norte 32 Norte 1.3 1014.7 0.3 83
2020-03-30 13:00:00 10.8 14 Norte 24 Norte 0.6 1014.8 0.9 83
2020-03-30 12:00:00 11.4 12 Norte 18 Nordeste 0 1014.6 1.4 85
2020-03-30 11:00:00 11.3 11 Este 22 Este 0.2 1014.4 1.2 85
2020-03-30 10:00:00 10.8 17 Este 32 Este 3.1 1013.9 1.5 92
2020-03-30 09:00:00 11.6 24 Este 37 Este 0 1013.2 0.8 85
2020-03-30 08:00:00 12.2 19 Este 42 Este 0 1013.2 0.7 76
2020-03-30 07:00:00 12.3 29 Este 48 Este 0 1012.4 0 75
2020-03-30 06:00:00 12.4 40 Este 50 Este 0 1012.4 -0.3 75
2020-03-30 05:00:00 12.7 38 Este 52 Este 0 1012.5 -0.4 77
2020-03-30 04:00:00 14 40 Este 52 Este 0 1012.4 -0.6 73
2020-03-30 03:00:00 13.8 21 Este 28 Este 0 1012.7 -0.6 86
2020-03-30 02:00:00 13.1 8 Nordeste 21 Nordeste 0 1012.9 -0.6 79
2020-03-30 01:00:00 13.8 10 Norte 13 Norte 0 1013 -0.6 76
2020-03-30 00:00:00 15 5 Sudeste 9 Sudeste 0 1013.3 -0.1 78
2020-03-29 23:00:00 15.3 7 Sudeste 9 Sudeste 0 1013.5 0.3 70
2020-03-29 22:00:00 15.1 6 Este 15 Sudeste 0 1013.6 0.7 68
2020-03-29 21:00:00 15.3 12 Sudeste 18 Sudeste 0 1013.4 0.9 73
2020-03-29 20:00:00 15.6 13 Sudeste 21 Sudeste 0 1013.2 0.7 72
2020-03-29 19:00:00 16.4 14 Sudeste 22 Sudeste 0 1012.9 0.1 65
2020-03-29 18:00:00 18.2 11 Sudeste 21 Sudeste 0 1012.5 -0.8 47
2020-03-29 17:00:00 18.4 14 Sudoeste 28 Sudoeste 0 1012.5 -1.5 51
2020-03-29 16:00:00 18.4 20 Sudoeste 28 Oeste 0 1012.8 -1.6 53
2020-03-29 15:00:00 18.2 19 Sudoeste 24 Sudoeste 0 1013.3 -1.5 44
2020-03-29 14:00:00 17.2 14 Sudoeste 22 Sudoeste 0 1014 -1.1 62
2020-03-29 13:00:00 17 15 Sudoeste 22 Sudoeste 0 1014.4 -0.9 61
2020-03-29 12:00:00 18.4 5 Sur 18 Norte 0 1014.8 -0.4 47
2020-03-29 11:00:00 15.8 15 Norte 26 Norte 0 1015.1 -0.2 56
2020-03-29 10:00:00 12.4 19 Norte 24 Norte 0 1015.3 0.3 67
2020-03-29 09:00:00 10 17 Norte 24 Norte 0 1015.2 0.1 75
2020-03-29 08:00:00 9.1 18 Norte 22 Norte 0 1015.3 -0.2 79
2020-03-29 07:00:00 9.2 14 Norte 17 Norte 0 1015 -1 80
2020-03-29 06:00:00 9.3 8 Norte 11 Norte 0 1015.1 -1.2 81
2020-03-29 05:00:00 10.1 9 Norte 13 Norte 0 1015.5 -1 79
2020-03-29 03:00:00 11.6 3 Nordeste 8 Norte 0 1016.3 -0.3 73
2020-03-29 01:00:00 12 4 Norte 24 Oeste 0 1016.5 -0.4 70
2020-03-29 00:00:00 13.4 19 Oeste 30 Oeste 0 1016.6 -0.3 68
2020-03-28 23:00:00 13.6 19 Oeste 28 Oeste 0 1016.6 0 65
2020-03-28 22:00:00 14.1 17 Oeste 22 Oeste 0 1016.9 0.7 69
2020-03-28 21:00:00 14.3 12 Oeste 21 Sudoeste 0 1016.9 0.9 69
2020-03-28 20:00:00 13.8 13 Oeste 21 Oeste 0 1016.6 0.7 69
2020-03-28 19:00:00 14.5 14 Sudoeste 24 Sudoeste 0 1016.2 -0.1 63
2020-03-28 18:00:00 15.5 19 Sudoeste 24 Sudoeste 0 1016 -0.5 58
2020-03-28 17:00:00 15.5 18 Sudoeste 24 Sudoeste 0 1015.9 -0.9 56
2020-03-28 16:00:00 16.6 17 Sudoeste 26 Sudoeste 0 1016.3 -0.9 53
2020-03-28 15:00:00 16.6 14 Sur 22 Sudoeste 0 1016.5 -0.9 51
2020-03-28 14:00:00 16.7 12 Sur 22 Sur 0 1016.8 -0.6 48
2020-03-28 13:00:00 16.6 12 Sudeste 22 Sudeste 0 1017.2 0 45
2020-03-28 12:00:00 17 17 Este 26 Este 0 1017.4 0.6 39
2020-03-28 11:00:00 16.2 10 Norte 17 Norte 0 1017.4 1 50
2020-03-28 10:00:00 14.8 12 Norte 22 Norte 0 1017.2 1.2 53
2020-03-28 09:00:00 13 15 Norte 24 Norte 0 1016.8 1.1 61
2020-03-28 08:00:00 10.8 16 Norte 22 Norte 0 1016.4 1 69
2020-03-28 07:00:00 10.5 15 Norte 24 Norte 0 1016 0.6 69
2020-03-28 06:00:00 10.5 18 Norte 26 Norte 0 1015.7 0.1 69
2020-03-28 05:00:00 10.5 19 Norte 26 Norte 0 1015.4 -0.4 70
2020-03-28 04:00:00 10.6 15 Norte 22 Norte 0 1015.4 -0.4 69
2020-03-28 03:00:00 10.2 16 Norte 22 Norte 0 1015.6 -0.4 72
2020-03-28 02:00:00 10.8 15 Norte 21 Norte 0 1015.8 -0.1 70
2020-03-28 01:00:00 10.5 14 Norte 17 Norte 0 1015.8 0 74
2020-03-28 00:00:00 10.4 8 Norte 13 Norte 0 1016 0.4 73
2020-03-27 23:00:00 10.6 7 Norte 9 Norte 0 1015.9 0.9 78
2020-03-27 22:00:00 10.9 4 Noroeste 9 Norte 0 1015.8 1 76
2020-03-27 21:00:00 11.3 6 Noroeste 9 Noroeste 0 1015.6 1.5 72
2020-03-27 20:00:00 11.6 4 Este 21 Este 0 1015 1.4 66
2020-03-27 19:00:00 12.8 11 Este 26 Este 0 1014.8 1.6 45
2020-03-27 18:00:00 13.6 9 Sur 17 Sudoeste 0 1014.1 1.1 41
2020-03-27 17:00:00 13.7 14 Sudoeste 22 Sudoeste 0 1013.6 0.6 42
2020-03-27 16:00:00 14.1 14 Sudoeste 22 Sudoeste 0 1013.2 0 35
2020-03-27 15:00:00 15.1 14 Sur 22 Sur 0 1013 -0.5 31
2020-03-27 14:00:00 15 13 Sur 24 Sudoeste 0 1013 -0.7 33
2020-03-27 13:00:00 15.3 12 Sur 18 Sur 0 1013.2 -0.5 33
2020-03-27 12:00:00 15.5 9 Norte 22 Norte 0 1013.5 -0.2 33
2020-03-27 11:00:00 12.8 18 Norte 26 Norte 0 1013.7 0.4 50
2020-03-27 10:00:00 10 18 Norte 30 Norte 0 1013.7 0.5 61
2020-03-27 09:00:00 7.5 22 Norte 30 Norte 0 1013.7 0.9 67
2020-03-27 08:00:00 5.4 16 Norte 26 Norte 0 1013.3 0.7 76
2020-03-27 07:00:00 3.8 23 Norte 32 Norte 0 1013.2 0.6 81
2020-03-27 06:00:00 4.1 19 Norte 26 Norte 0 1012.8 0.1 81
2020-03-27 05:00:00 4.5 19 Norte 26 Norte 0 1012.6 -0.1 80
2020-03-27 04:00:00 4.9 19 Norte 26 Norte 0 1012.6 -0.3 80
2020-03-27 03:00:00 5 17 Norte 26 Norte 0 1012.7 0 81
2020-03-27 02:00:00 6 18 Norte 26 Norte 0 1012.7 0 79
2020-03-27 01:00:00 6.7 14 Norte 18 Norte 0 1012.9 0.5 72
2020-03-27 00:00:00 7.4 12 Norte 15 Norte 0 1012.7 0.5 69
2020-03-26 23:00:00 7.8 10 Norte 15 Norte 0 1012.7 1 67
2020-03-26 22:00:00 9.3 13 Norte 28 Nordeste 0 1012.4 1.3 60
2020-03-26 21:00:00 9.9 18 Nordeste 26 Nordeste 0 1012.2 1.8 59
2020-03-26 20:00:00 10.1 22 Nordeste 37 Este 0 1011.7 2 59
2020-03-26 19:00:00 9.9 26 Este 50 Este 0 1011.1 2.2 66
2020-03-26 18:00:00 10.2 39 Este 54 Este 0 1010.4 1.5 67
2020-03-26 17:00:00 10.9 38 Este 58 Este 0 1009.7 1 63
2020-03-26 16:00:00 12 43 Este 58 Este 0 1008.9 0.3 58
2020-03-26 15:00:00 11.1 40 Este 54 Este 0 1008.9 0.5 64
2020-03-26 14:00:00 11.2 42 Este 58 Este 0 1008.7 0.8 64
2020-03-26 13:00:00 11.5 37 Este 54 Este 0 1008.6 0.4 67
2020-03-26 12:00:00 12.1 44 Este 55 Este 0 1008.4 0.2 68
2020-03-26 11:00:00 12.4 24 Este 35 Este 0 1007.9 0.2 58
2020-03-26 10:00:00 10.8 15 Norte 24 Norte 0 1008.2 0 60
2020-03-26 09:00:00 9 18 Norte 26 Norte 0 1008.2 -0.2 70
2020-03-26 08:00:00 6.4 14 Norte 18 Norte 0 1007.7 -0.8 79
2020-03-26 07:00:00 5 15 Norte 22 Norte 0 1008.2 -1.3 84
2020-03-26 06:00:00 5.4 11 Norte 17 Norte 0 1008.4 -2 81
2020-03-26 05:00:00 5.7 12 Norte 21 Norte 0 1008.5 -2.8 80
2020-03-26 04:00:00 5.9 10 Norte 15 Norte 0 1009.5 -2.7 80
2020-03-26 03:00:00 6.1 13 Norte 15 Norte 0 1010.4 -2.4 79
2020-03-26 02:00:00 6.5 7 Norte 13 Norte 0 1011.3 -2.3 77
2020-03-26 01:00:00 6.1 9 Norte 15 Norte 0 1012.2 -2.2 79
2020-03-26 00:00:00 6.1 6 Norte 9 Norte 0 1012.8 -1.7 78
2020-03-25 23:00:00 7.3 6 Norte 11 Noroeste 0 1013.6 -0.9 73
2020-03-25 22:00:00 8.2 9 Norte -- -- 0 1014.4 -0.3 67
2020-03-25 21:00:00 8.9 5 Oeste 11 Oeste 0 1014.5 -0.5 63
2020-03-25 20:00:00 10 8 Oeste 17 Sudoeste 0 1014.5 -0.6 62
2020-03-25 19:00:00 11.2 10 Oeste 17 Sudoeste 0 1014.7 -0.7 58
2020-03-25 18:00:00 11.5 9 Sudoeste 15 Sur 0 1015 -0.8 54
2020-03-25 17:00:00 11.6 8 Sudeste 18 Sur 0 1015.1 -1.3 52
2020-03-25 16:00:00 11.6 14 Sur 24 Sur 0 1015.4 -1.6 58
2020-03-25 15:00:00 12.5 9 Sur 18 Sur 0 1015.8 -1.4 44
2020-03-25 14:00:00 13.1 10 Sudeste 21 Sudeste 0 1016.4 -1.1 39
2020-03-25 13:00:00 11.6 13 Sur 28 Sudeste 0 1017 -0.7 55
2020-03-25 12:00:00 12.7 12 Este 32 Este 0 1017.2 -0.5 43
2020-03-25 11:00:00 10.9 19 Norte 30 Norte 0 1017.5 -0.3 51
2020-03-25 10:00:00 10.8 19 Norte 24 Norte 0 1017.7 0.2 48
2020-03-25 09:00:00 10.1 8 Norte 45 Este 0 1017.7 0.7 50
2020-03-25 08:00:00 9.3 16 Nordeste 46 Este 0 1017.8 0.5 55
2020-03-25 07:00:00 10.4 23 Nordeste 42 Nordeste 0 1017.5 0 45
2020-03-25 06:00:00 10.4 19 Nordeste 28 Nordeste 0 1017 -1 46
2020-03-25 05:00:00 10.3 20 Nordeste 33 Nordeste 0 1017.3 -1.3 50
2020-03-25 04:00:00 10.3 26 Nordeste 33 Nordeste 0 1017.5 -1.4 54
2020-03-25 03:00:00 10.5 23 Nordeste 33 Nordeste 0 1018 -1.1 55
2020-03-25 02:00:00 10.7 23 Nordeste 28 Nordeste 0 1018.6 -0.9 55
2020-03-25 01:00:00 10.8 19 Nordeste 37 Este 0 1018.9 -0.6 57
2020-03-25 00:00:00 11.2 28 Este 41 Este 0 1019.1 -0.1 57
2020-03-24 23:00:00 11.1 22 Nordeste 42 Este 0 1019.5 0.7 60
2020-03-24 22:00:00 11.2 38 Este 48 Este 0 1019.5 0.9 62
2020-03-24 21:00:00 11.8 34 Este 48 Este 0 1019.2 1.1 61
2020-03-24 20:00:00 12.2 39 Este 54 Este 0 1018.8 0.6 62
2020-03-24 19:00:00 12.4 36 Este 48 Este 0 1018.6 0.1 63
2020-03-24 18:00:00 12.9 39 Este 48 Este 0 1018.1 -0.8 62
2020-03-24 17:00:00 13 37 Este 46 Este 0 1018.2 -1.2 70
2020-03-24 16:00:00 14.1 34 Este 45 Este 0 1018.5 -1.4 66
2020-03-24 15:00:00 14.8 38 Este 48 Este 0 1018.9 -1.1 57
2020-03-24 14:00:00 14.9 31 Este 46 Este 0 1019.4 -0.9 56
2020-03-24 13:00:00 14.8 38 Este 48 Este 0 1019.9 -0.5 55
2020-03-24 12:00:00 14.3 38 Este 48 Este 0 1020 0 58
2020-03-24 11:00:00 14.2 38 Este 48 Este 0 1020.3 0.1 61
2020-03-24 10:00:00 13.7 37 Este 48 Este 0 1020.4 0.3 63
2020-03-24 09:00:00 13 38 Este 48 Este 0 1020 0.1 70
2020-03-24 08:00:00 12.1 28 Este 37 Este 0 1020.2 0.1 75
2020-03-24 07:00:00 11.6 24 Nordeste 41 Este 0 1020.1 0.2 76
2020-03-24 06:00:00 11.9 31 Este 41 Este 0 1019.9 -0.1 79
2020-03-24 05:00:00 12.2 33 Este 46 Este 0 1020.1 -0.2 81
2020-03-24 04:00:00 12.6 37 Este 45 Este 0 1019.9 -0.6 81
2020-03-24 03:00:00 12.7 29 Este 41 Este 0 1020 -0.5 77
2020-03-24 02:00:00 12.8 28 Este 41 Este 0 1020.3 -0.2 80
2020-03-24 01:00:00 13 30 Este 41 Este 0 1020.5 0.3 80
2020-03-24 00:00:00 13.1 30 Este 42 Este 0 1020.5 0.5 81
2020-03-23 23:00:00 13.6 37 Este 54 Este 0 1020.5 1 78
2020-03-23 22:00:00 13.6 36 Este 50 Este 0.1 1020.2 1.1 84
2020-03-23 21:00:00 13.5 37 Este 55 Este 0 1020 1.4 85
2020-03-23 20:00:00 13.9 41 Este 50 Este 0 1019.5 1.3 81
2020-03-23 19:00:00 14.4 36 Este 45 Este 0 1019.1 0.8 81
2020-03-23 18:00:00 15.3 33 Este 46 Este 0 1018.6 -0.2 77
2020-03-23 17:00:00 15.7 37 Este 50 Este 0 1018.2 -0.7 75
2020-03-23 16:00:00 15.8 40 Este 52 Este 0 1018.3 -1 78
2020-03-23 15:00:00 16 32 Este 42 Este 0 1018.8 -0.4 76
2020-03-23 14:00:00 16 32 Este 39 Este 0 1018.9 0 80
2020-03-23 13:00:00 14.6 24 Este 33 Este 0.2 1019.3 0.6 88
2020-03-23 12:00:00 12.2 14 Nordeste 24 Norte 8.6 1019.2 1.2 97
2020-03-23 11:00:00 11.9 14 Noroeste 28 Este 10.7 1018.9 1.3 96
2020-03-23 10:00:00 12.7 24 Este 33 Este 0.6 1018.7 1.7 91
2020-03-23 09:00:00 13.3 15 Nordeste 22 Nordeste 0 1018 1.6 94
2020-03-23 08:00:00 12.6 24 Este 35 Este 0.3 1017.6 1.5 93
2020-03-23 07:00:00 13 22 Este 33 Nordeste 0 1017 1.1 92
2020-03-23 06:00:00 13 27 Nordeste 35 Este 0 1016.4 0.4 92
2020-03-23 05:00:00 13.3 21 Nordeste 28 Este 0.2 1016.1 0.1 89
2020-03-23 04:00:00 13.3 15 Nordeste 26 Nordeste 0 1015.9 -0.1 91
2020-03-23 03:00:00 13.4 22 Este 28 Este 0.1 1016 -0.1 90
2020-03-23 02:00:00 13.5 20 Este 24 Este 0 1016 -0.1 90
2020-03-23 01:00:00 13.4 18 Este 24 Este 0 1016 0.1 90
2020-03-23 00:00:00 13.7 18 Este 28 Este 0 1016.1 0.8 92
2020-03-22 23:00:00 13.8 22 Este 32 Este 0.1 1016.1 1.4 95
2020-03-22 22:00:00 13.7 15 Este 24 Este 0.5 1015.9 1.7 94
2020-03-22 21:00:00 13.3 19 Este 30 Este 2.4 1015.3 1.6 94
2020-03-22 20:00:00 14.3 24 Este 37 Este 0.5 1014.7 1.5 94
2020-03-22 19:00:00 14.7 27 Este 35 Este 0 1014.2 1.1 86
2020-03-22 18:00:00 15.1 30 Este 37 Este 0 1013.7 0.9 84
2020-03-22 17:00:00 15.7 26 Este 33 Este 0 1013.2 0 80
2020-03-22 16:00:00 15.7 27 Este 39 Este 0 1013.1 -0.4 80
2020-03-22 15:00:00 16.5 29 Este 39 Este 0 1012.8 -0.9 76
2020-03-22 14:00:00 16.5 31 Este 39 Este 0 1013.2 -0.2 75
2020-03-22 13:00:00 16.5 27 Este 35 Este 0 1013.5 0.5 74
2020-03-22 12:00:00 15.7 26 Este 35 Este 0 1013.7 1.3 77
2020-03-22 11:00:00 15.4 26 Este 32 Este 0 1013.4 1.1 80
2020-03-22 10:00:00 15.2 22 Este 26 Este 0 1013 1 80
2020-03-22 09:00:00 12.8 13 Norte 22 Norte 0 1012.4 0.7 86
2020-03-22 08:00:00 10.6 15 Norte 22 Norte 0 1012.3 0.9 90
2020-03-22 07:00:00 9.9 15 Norte 21 Norte 0 1012 0.5 92
2020-03-22 06:00:00 10 14 Norte 18 Norte 0 1011.7 -0.2 92
2020-03-22 05:00:00 10.3 13 Norte 22 Norte 0 1011.4 -0.8 91
2020-03-22 04:00:00 10.9 15 Norte 21 Norte 0 1011.5 -1 91
2020-03-22 03:00:00 11 12 Norte 17 Norte 0 1011.9 -0.9 91
2020-03-22 02:00:00 11.2 11 Norte 15 Norte 0 1012.2 -0.7 91
2020-03-22 01:00:00 12.2 8 Norte 11 Norte 0 1012.5 -0.5 88
2020-03-22 00:00:00 12.5 8 Norte 13 Norte 0 1012.8 -0.1 87
2020-03-21 23:00:00 13.1 9 Norte 13 Norte 0 1012.9 0.3 90
2020-03-21 22:00:00 13.7 9 Este 15 Este 0 1013 0.8 89
2020-03-21 21:00:00 13.8 10 Este 15 Este 0 1012.9 1.1 89
2020-03-21 20:00:00 14 13 Este 18 Este 0 1012.6 0.8 86
2020-03-21 19:00:00 14.3 12 Este 21 Este 0 1012.2 0.1 84
2020-03-21 18:00:00 15.5 15 Sudeste 22 Sudeste 0 1011.8 -0.9 79
2020-03-21 17:00:00 16.1 15 Sudeste 21 Sudeste 0 1011.8 -1.4 71
2020-03-21 16:00:00 16.4 17 Sudeste 30 Este 0 1012.1 -1.8 68
2020-03-21 15:00:00 16.5 23 Sudeste 28 Sudeste 0 1012.7 -1.7 65
2020-03-21 14:00:00 16.7 21 Este 30 Este 0 1013.2 -1.5 62
2020-03-21 13:00:00 16.4 20 Este 28 Este 0 1013.9 -1.1 63
2020-03-21 12:00:00 15.9 22 Este 30 Este 0 1014.4 -0.8 64
2020-03-21 11:00:00 15.2 13 Norte 22 Norte 0 1014.7 -0.4 60
2020-03-21 10:00:00 12.3 17 Norte 26 Norte 0 1015 -0.2 65
2020-03-21 09:00:00 9.4 18 Norte 28 Norte 0 1015.2 0 76
2020-03-21 08:00:00 8 22 Norte 28 Norte 0 1015.1 -0.3 81
2020-03-21 07:00:00 7.3 21 Norte 26 Norte 0 1015.2 -0.6 84
2020-03-21 06:00:00 7.9 17 Norte 24 Norte 0 1015.2 -1 83
2020-03-21 05:00:00 7.9 19 Norte 26 Norte 0 1015.4 -1.4 86
2020-03-21 04:00:00 8.3 19 Norte 26 Norte 0 1015.8 -1.2 87
2020-03-21 03:00:00 8.9 17 Norte 22 Norte 0 1016.2 -1.3 87
2020-03-21 02:00:00 9.2 14 Norte 21 Norte 0 1016.8 -1.2 88
2020-03-21 01:00:00 9.5 12 Norte 17 Norte 0 1017 -1.2 87
2020-03-21 00:00:00 10 12 Norte 17 Norte 0 1017.5 -0.7 85
2020-03-20 23:00:00 10.4 12 Norte 15 Norte 0 1018 -0.3 84
2020-03-20 22:00:00 11.8 11 Norte 13 Norte 0 1018.2 -0.1 80
2020-03-20 21:00:00 13.1 11 Este 15 Este 0 1018.2 -0.2 81
2020-03-20 20:00:00 13.3 10 Este 15 Este 0 1018.3 -0.2 79
2020-03-20 19:00:00 14.1 13 Este 22 Este 0 1018.3 -0.5 79
2020-03-20 18:00:00 15.1 18 Este 24 Este 0 1018.4 -0.7 73
2020-03-20 17:00:00 15.6 18 Sudeste 26 Sudeste 0 1018.5 -0.8 69
2020-03-20 16:00:00 15.8 21 Este 30 Sudeste 0 1018.8 -1.1 70
2020-03-20 15:00:00 16.2 23 Sudeste 30 Sudeste 0 1019.1 -1.3 70
2020-03-20 14:00:00 16.3 23 Este 30 Sudeste 0 1019.3 -1.3 67
2020-03-20 13:00:00 15.8 21 Este 33 Sudeste 0 1019.9 -0.8 70
2020-03-20 12:00:00 15.4 23 Este 32 Este 0 1020.4 -0.2 73
2020-03-20 11:00:00 14.8 17 Este 26 Este 0 1020.6 0.3 71
2020-03-20 10:00:00 13.4 12 Norte 21 Norte 0 1020.7 0.8 72
2020-03-20 09:00:00 10.4 19 Norte 30 Norte 0 1020.6 0.7 80
2020-03-20 08:00:00 9 18 Norte 26 Norte 0 1020.3 0.2 86
2020-03-20 07:00:00 8.6 16 Norte 26 Norte 0 1019.9 -0.1 88
2020-03-20 06:00:00 8.9 18 Norte 24 Norte 0 1019.9 -0.5 88
2020-03-20 05:00:00 9.4 13 Norte 21 Norte 0 1020.1 -0.8 88
2020-03-20 04:00:00 9.8 16 Norte 22 Norte 0 1020 -1.3 88
2020-03-20 03:00:00 10.1 14 Norte 21 Norte 0 1020.4 -1.2 89
2020-03-20 02:00:00 10.3 14 Norte 18 Norte 0 1020.9 -0.8 88
2020-03-20 01:00:00 10.3 13 Norte 15 Norte 0 1021.3 -0.5 87
2020-03-20 00:00:00 10.5 7 Norte 15 Norte 0 1021.6 0 87
2020-03-19 23:00:00 10.9 10 Norte 13 Norte 0 1021.7 0 85
2020-03-19 22:00:00 12.6 8 Este 13 Este 0 1021.8 0.3 79
2020-03-19 21:00:00 12.8 11 Este 15 Este 0 1021.6 0 80
2020-03-19 20:00:00 13 12 Este 17 Este 0 1021.7 -0.1 79
2020-03-19 19:00:00 13.6 12 Este 17 Sudeste 0 1021.5 -0.6 78
2020-03-19 18:00:00 14.1 11 Este 21 Este 0 1021.6 -0.9 76
2020-03-19 17:00:00 15.1 11 Sudeste 17 Sudeste 0 1021.8 -1.4 70
2020-03-19 16:00:00 14.9 12 Sudeste 21 Este 0 1022.1 -1.6 72
2020-03-19 15:00:00 15.3 13 Sudeste 22 Sudeste 0 1022.5 -1.7 70
2020-03-19 14:00:00 15.3 12 Sudeste 24 Sudeste 0 1023.2 -1.2 72
2020-03-19 13:00:00 15.4 14 Sudeste 24 Sudeste 0 1023.7 -0.7 71
2020-03-19 12:00:00 15.1 15 Sudeste 22 Sur 0 1024.2 0.2 72
2020-03-19 11:00:00 15.4 10 Sudeste 17 Sudeste 0 1024.4 0.5 73
2020-03-19 10:00:00 13.7 7 Norte 18 Norte 0 1024.4 0.5 78
2020-03-19 09:00:00 10.6 12 Norte 22 Norte 0 1024 0.2 85
2020-03-19 08:00:00 8.9 17 Norte 22 Norte 0 1023.9 0.1 89
2020-03-19 07:00:00 8.3 15 Norte 22 Norte 0 1023.9 0 90
2020-03-19 06:00:00 8.6 16 Norte 22 Norte 0 1023.8 -0.8 90
2020-03-19 05:00:00 8.9 13 Norte 18 Norte 0 1023.8 -1.2 89
2020-03-19 04:00:00 8.7 8 Norte 13 Norte 0 1023.9 -1.4 87
2020-03-19 03:00:00 9.2 11 Norte 15 Norte 0 1024.6 -0.9 85
2020-03-19 02:00:00 9.3 13 Norte 17 Norte 0 1025 -0.6 83
2020-03-19 01:00:00 9.5 6 Norte 13 Norte 0 1025.3 -0.2 85
2020-03-19 00:00:00 10.6 5 Norte 8 Norte 0 1025.5 0.1 89
2020-03-18 23:00:00 10.9 -- -- -- -- 0 1025.6 0.3 90
2020-03-18 22:00:00 11.5 2 Oeste -- -- 0 1025.5 0.4 93
2020-03-18 21:00:00 13 4 Oeste 8 Sudeste 0 1025.4 0.4 89
2020-03-18 20:00:00 13.6 5 Sudeste 15 Sudeste 0 1025.3 0.1 89
2020-03-18 19:00:00 14.2 9 Sudeste 13 Sur 0 1025.1 -0.6 85
2020-03-18 18:00:00 15.1 3 Este 11 Este 0 1025 -1.1 79
2020-03-18 17:00:00 15.2 8 Sudeste 15 Sur 0 1025.2 -1.4 81
2020-03-18 16:00:00 15.4 13 Sudeste 17 Sudeste 0 1025.7 -1.7 76
2020-03-18 15:00:00 17 12 Este 21 Sudeste 0 1026.1 -1.7 61
2020-03-18 14:00:00 16.8 11 Este 21 Este 0 1026.6 -1.5 67
2020-03-18 13:00:00 15.4 17 Sudeste 21 Sudeste 0 1027.4 -0.9 72
2020-03-18 12:00:00 15.3 14 Este 21 Este 0 1027.8 -0.3 69
2020-03-18 11:00:00 14.9 17 Este 26 Este 0 1028.1 0.2 69
2020-03-18 10:00:00 13.3 11 Norte 17 Norte 0 1028.3 0.6 81
2020-03-18 09:00:00 12 12 Norte 17 Norte 0 1028.1 0.5 85
2020-03-18 08:00:00 11.1 12 Norte 17 Norte 0 1027.9 0.5 88
2020-03-18 07:00:00 11.3 10 Norte 15 Norte 0 1027.7 0.2 87
2020-03-18 06:00:00 11.6 10 Norte 15 Norte 0 1027.6 -0.3 86
2020-03-18 05:00:00 11.6 11 Norte 17 Norte 0 1027.4 -1.1 87
2020-03-18 04:00:00 11.6 11 Norte 17 Norte 0 1027.5 -1.1 87
2020-03-18 03:00:00 11.4 10 Norte 13 Norte 0 1027.9 -1 89
2020-03-18 02:00:00 11.8 9 Norte 9 Norte 0 1028.5 -0.6 89
2020-03-18 01:00:00 13 5 Nordeste 13 Este 0 1028.6 -0.4 91
2020-03-18 00:00:00 13.2 9 Este 17 Este 0 1028.9 0.2 92
2020-03-17 23:00:00 13.8 15 Este 18 Este 0 1029.1 1.1 90
2020-03-17 22:00:00 14.5 13 Este 18 Este 0 1029 1.2 86
2020-03-17 21:00:00 14.4 14 Este 22 Este 0 1028.7 1 85
2020-03-17 20:00:00 14.8 16 Este 21 Este 0 1028 0.6 81
2020-03-17 19:00:00 15 19 Este 24 Este 0 1027.8 0.6 80
2020-03-17 18:00:00 15.7 21 Este 33 Este 0 1027.7 0.2 75
2020-03-17 17:00:00 16.6 31 Este 41 Este 0 1027.4 -0.5 65
2020-03-17 16:00:00 17.1 36 Este 45 Este 0 1027.2 -0.9 67
2020-03-17 15:00:00 16.1 36 Este 45 Este 0 1027.5 -0.4 74
2020-03-17 14:00:00 16.4 36 Este 46 Este 0 1027.9 0.2 72
2020-03-17 13:00:00 16.6 33 Este 46 Este 0 1028.1 1.5 73
2020-03-17 12:00:00 15.8 35 Este 45 Este 0 1027.9 1.9 77
2020-03-17 11:00:00 15.3 32 Este 45 Este 0 1027.7 2.2 78
2020-03-17 10:00:00 15.4 33 Este 46 Este 0 1026.6 1.7 76
2020-03-17 09:00:00 15.3 32 Nordeste 46 Este 0 1026 1.7 77
2020-03-17 08:00:00 15 33 Este 46 Este 0 1025.5 1.7 80
2020-03-17 07:00:00 14.7 34 Este 52 Este 0 1024.9 1.7 82
2020-03-17 06:00:00 14.4 36 Este 50 Este 0 1024.3 0.8 83
2020-03-17 05:00:00 14.3 36 Este 54 Este 0 1023.8 0.4 82
2020-03-17 04:00:00 14.1 40 Este 52 Este 0 1023.2 0.1 83
2020-03-17 03:00:00 14.1 39 Este 54 Este 0 1023.5 0.9 82
2020-03-17 02:00:00 14.3 36 Este 54 Este 0 1023.4 1.1 80
2020-03-17 01:00:00 14.1 31 Este 58 Este 0 1023.1 1.6 84
2020-03-17 00:00:00 14.1 43 Este 59 Este 0 1022.6 2.2 83
2020-03-16 23:00:00 13.9 35 Este 55 Este 0 1022.3 2.6 91
2020-03-16 22:00:00 13.9 45 Este 58 Este 0 1021.5 2.9 89
2020-03-16 21:00:00 13.9 43 Este 58 Este 0 1020.4 2.6 89
2020-03-16 20:00:00 13.4 42 Este 55 Este 0 1019.7 2.2 95
2020-03-16 19:00:00 13.7 42 Este 55 Este 0 1018.6 1.6 94
2020-03-16 18:00:00 13.8 41 Este 52 Este 0.3 1017.8 0.9 94
2020-03-16 17:00:00 13.7 37 Este 46 Este 1.2 1017.5 1.4 94
2020-03-16 16:00:00 13.9 35 Este 46 Este 3.3 1017 1.3 95
2020-03-16 15:00:00 14.9 26 Este 48 Este 5.7 1016.9 1.6 91
2020-03-16 14:00:00 14.5 30 Este 58 Este 1.8 1016.1 0.7 92
2020-03-16 13:00:00 14.8 35 Este 50 Este 5.5 1015.7 0.4 91
2020-03-16 12:00:00 14.2 43 Este 63 Este 0.2 1015.3 0.3 93
2020-03-16 11:00:00 14.7 39 Este 52 Este 0 1015.4 0.7 87
2020-03-16 10:00:00 14.6 40 Este 54 Este 0 1015.3 0.7 84
2020-03-16 09:00:00 14.2 37 Este 52 Este 0 1015 0.8 85
2020-03-16 08:00:00 13.8 35 Este 45 Este 0 1014.7 0.7 85
2020-03-16 07:00:00 13.7 29 Este 39 Este 0 1014.6 0.3 85
2020-03-16 06:00:00 14 24 Este 32 Este 0 1014.2 -0.8 78
2020-03-16 05:00:00 13.7 21 Este 26 Este 0 1014 -1.7 83
2020-03-16 04:00:00 14.2 18 Este 22 Este 0 1014.3 -1.7 83
2020-03-16 03:00:00 14.5 16 Este 22 Este 0 1015 -1.5 86
2020-03-16 02:00:00 14.6 14 Este 18 Este 0 1015.7 -1.1 85
2020-03-16 01:00:00 14.6 13 Sudeste 21 Sudeste 0 1016 -0.7 83
2020-03-16 00:00:00 14.6 13 Sudeste 21 Sudeste 0 1016.5 0.2 84
2020-03-15 23:00:00 14.7 14 Sudeste 21 Este 0 1016.8 0.9 84
2020-03-15 22:00:00 14.5 13 Sudeste 17 Sudeste 0 1016.7 0.8 86
2020-03-15 21:00:00 14.7 12 Sudeste 21 Este 0 1016.3 0.4 84
2020-03-15 20:00:00 14.6 11 Sudeste 17 Sudeste 0 1015.9 -0.3 85
2020-03-15 19:00:00 14.7 11 Sudeste 21 Sudeste 0 1015.9 -0.7 83
2020-03-15 18:00:00 15.7 11 Sur 22 Sur 0 1015.9 -1.1 77
2020-03-15 17:00:00 15.8 14 Sur 26 Sudoeste 0 1016.2 -1.6 78
2020-03-15 16:00:00 16.5 17 Sudoeste 26 Sudoeste 0 1016.6 -1.7 76
2020-03-15 15:00:00 16.3 15 Sudoeste 22 Sudoeste 0 1017 -1.8 77
2020-03-15 14:00:00 16.3 14 Sudoeste 22 Sur 0 1017.8 -1.4 76
2020-03-15 13:00:00 16.5 14 Sudoeste 22 Sudoeste 0 1018.3 -1.2 74
2020-03-15 12:00:00 16.6 14 Sudoeste 18 Sudoeste 0 1018.8 -0.5 70
2020-03-15 11:00:00 16.2 10 Sudoeste 17 Sudoeste 0 1019.2 0.2 72
2020-03-15 10:00:00 13.4 11 Norte 21 Norte 0 1019.5 0.7 77
2020-03-15 09:00:00 11.1 15 Norte 21 Norte 0 1019.3 0.5 82
2020-03-15 08:00:00 9.7 14 Norte 21 Norte 0 1019 0 86
2020-03-15 07:00:00 9 14 Norte 22 Norte 0 1018.8 -0.6 88
2020-03-15 06:00:00 9.4 15 Norte 22 Norte 0 1018.8 -1.2 89
2020-03-15 05:00:00 9.5 15 Norte 22 Norte 0 1019 -1.3 86
2020-03-15 04:00:00 9.9 14 Norte 18 Norte 0 1019.4 -0.9 84
2020-03-15 03:00:00 9.8 13 Norte 17 Norte 0 1020 -0.3 84
2020-03-15 02:00:00 9.8 8 Norte 17 Norte 0 1020.3 -0.1 82
2020-03-15 01:00:00 10.3 6 Norte 17 Norte 0 1020.3 0.1 81
2020-03-15 00:00:00 11.2 12 Norte 15 Norte 0 1020.3 0.2 80
2020-03-14 23:00:00 11.9 10 Norte 13 Norte 0 1020.4 0.5 80
2020-03-14 22:00:00 12.5 6 Noroeste 9 Sudoeste 0 1020.2 0.6 82
2020-03-14 21:00:00 14.4 6 Sudoeste 9 Sudoeste 0 1020.1 0.8 77
2020-03-14 20:00:00 14.6 8 Sudoeste 13 Sudoeste 0 1019.9 0.9 78
2020-03-14 19:00:00 14.8 11 Sudoeste 15 Sudoeste 0 1019.6 0.7 78
2020-03-14 18:00:00 15.7 13 Sudoeste 22 Sudoeste 0 1019.3 0.1 71
2020-03-14 17:00:00 16.5 17 Sudoeste 22 Sudoeste 0 1019 -0.5 69
2020-03-14 16:00:00 16.2 13 Sur 21 Sur 0 1018.9 -0.9 74
2020-03-14 15:00:00 17.5 13 Sur 18 Sur 0 1019.2 -0.8 71
2020-03-14 14:00:00 17.6 13 Sur 21 Sur 0 1019.5 -0.7 72
2020-03-14 13:00:00 18.3 12 Sudeste 21 Sudeste 0 1019.8 -0.3 65
2020-03-14 12:00:00 17.6 10 Sudeste 18 Sudeste 0 1020 0.5 70
2020-03-14 11:00:00 17.8 13 Norte 26 Norte 0 1020.2 1.4 61
2020-03-14 10:00:00 15.4 17 Nordeste 22 Nordeste 0 1020.1 1.6 71
2020-03-14 09:00:00 14.5 13 Norte 21 Norte 0 1019.5 1.3 78
2020-03-14 08:00:00 13.2 10 Norte 21 Nordeste 0 1018.8 0.8 85
2020-03-14 07:00:00 12.7 13 Norte 17 Norte 0 1018.5 0.5 87
2020-03-14 06:00:00 13 9 Norte 17 Norte 0 1018.2 -0.4 86
2020-03-14 05:00:00 13.5 11 Oeste 15 Oeste 0 1018 -0.8 80
2020-03-14 04:00:00 12.8 8 Oeste 13 Oeste 0 1018 -0.5 90
2020-03-14 03:00:00 12.7 5 Norte 8 Nordeste 0 1018.6 -0.1 89
2020-03-14 02:00:00 12.4 7 Norte 13 Oeste 0 1018.8 -0.1 92
2020-03-14 01:00:00 13 7 Oeste 17 Oeste 0 1018.5 0 91
2020-03-14 00:00:00 13.3 12 Oeste 18 Oeste 0 1018.7 0.7 90
2020-03-13 23:00:00 13.5 14 Oeste 24 Oeste 0 1018.9 1.1 89
2020-03-13 22:00:00 14 18 Oeste 28 Sudoeste 0 1018.5 1.2 88
2020-03-13 21:00:00 14.2 22 Sudoeste 35 Sudoeste 0 1018 1 88
2020-03-13 20:00:00 14.2 25 Sudoeste 37 Sudoeste 0 1017.8 0.6 89
2020-03-13 19:00:00 14.5 27 Sudoeste 37 Sudoeste 0 1017.3 0 86
2020-03-13 18:00:00 15.3 28 Oeste 48 Sudoeste 0 1017 -0.7 84
2020-03-13 17:00:00 16 36 Sudoeste 48 Sudoeste 0 1017.2 -1.3 80
2020-03-13 16:00:00 16.6 30 Sudoeste 41 Oeste 0 1017.3 -2.2 76
2020-03-13 15:00:00 17.2 30 Sudoeste 39 Sudoeste 0 1017.7 -2.4 72
2020-03-13 14:00:00 16.7 30 Sudoeste 39 Sudoeste 0 1018.5 -2 76
2020-03-13 13:00:00 17 28 Sudoeste 35 Sudoeste 0 1019.5 -1.1 72
2020-03-13 12:00:00 16.7 25 Sudoeste 33 Sudoeste 0 1020.1 0 74
2020-03-13 11:00:00 16 18 Sudoeste 22 Sudoeste 0 1020.5 1.2 75
2020-03-13 10:00:00 15.2 9 Oeste 13 Oeste 0 1020.6 1.5 84
2020-03-13 09:00:00 13.3 4 Oeste 11 Oeste 0 1020.1 1.5 95
2020-03-13 08:00:00 11.7 8 Oeste 11 Oeste 0 1019.3 0.7 96
2020-03-13 07:00:00 10.4 4 Noroeste 15 Norte 0 1019.1 0.5 94
2020-03-13 06:00:00 11.3 5 Norte 18 Norte 0 1018.6 -0.1 95
2020-03-13 05:00:00 11.7 6 Este 13 Nordeste 0 1018.6 -0.4 95
2020-03-13 04:00:00 11.5 7 Norte 13 Nordeste 0 1018.6 -0.9 94
2020-03-13 03:00:00 11.9 4 Nordeste 8 Norte 0 1018.7 -1.1 95
2020-03-13 02:00:00 12.4 7 Este 13 Este 0 1019 -0.7 95
2020-03-13 01:00:00 12.5 12 Este 21 Nordeste 0 1019.5 0.1 94
2020-03-13 00:00:00 12.8 12 Este 22 Este 0 1019.8 0.8 95
2020-03-12 23:00:00 13.1 14 Nordeste 26 Nordeste 0 1019.7 1.3 92
2020-03-12 22:00:00 13.7 13 Este 17 Este 0 1019.4 1.3 91
2020-03-12 21:00:00 13.7 10 Este 15 Sur 0 1019 1.5 92
2020-03-12 20:00:00 13.7 5 Este 9 Sudeste 0 1018.4 0.5 93
2020-03-12 19:00:00 13.8 6 Sur 17 Sudoeste 0 1018.1 -0.1 93
2020-03-12 18:00:00 14.1 10 Sudoeste 21 Sudoeste 0 1017.5 -1.3 92
2020-03-12 17:00:00 13.9 14 Sudoeste 21 Oeste 0 1017.9 -1.6 95
2020-03-12 16:00:00 14.6 13 Sudoeste 22 Sudoeste 0 1018.2 -2.1 92
2020-03-12 15:00:00 14.8 17 Sudoeste 24 Sudoeste 0 1018.8 -2.2 91
2020-03-12 14:00:00 15.2 15 Sudoeste 22 Sudoeste 0 1019.5 -1.5 88
2020-03-12 13:00:00 16 12 Sudoeste 22 Sudoeste 0 1020.3 -0.5 83
2020-03-12 12:00:00 14.7 19 Sudoeste 32 Sudoeste 0 1021 0.1 88
2020-03-12 11:00:00 15.7 21 Sudoeste 26 Sudoeste 0 1021 0.3 81
2020-03-12 10:00:00 16.3 5 Oeste 11 Norte 0 1020.8 0.5 67
2020-03-12 09:00:00 13.3 9 Norte 17 Norte 0 1020.9 1 73
2020-03-12 08:00:00 11 10 Norte 13 Norte 0 1020.7 0.8 83
2020-03-12 07:00:00 10.8 4 Norte 13 Norte 0 1020.3 0.2 82
2020-03-12 06:00:00 10.7 7 Norte 15 Norte 0 1019.9 -0.7 84
2020-03-12 05:00:00 11.3 5 Noroeste 18 Norte 0 1019.9 -1.3 82
2020-03-12 04:00:00 12.2 16 Norte 21 Norte 0 1020.1 -1.5 81
2020-03-12 03:00:00 11.4 10 Norte 15 Norte 0 1020.6 -1.4 85
2020-03-12 02:00:00 11.6 4 Norte 11 Nordeste 0 1021.2 -1 86
2020-03-12 01:00:00 11.3 4 Norte 8 Norte 0 1021.6 -0.6 91
2020-03-12 00:00:00 11.7 9 Norte 11 Norte 0 1022 0.1 91
2020-03-11 23:00:00 12.5 5 Noroeste -- -- 0 1022.2 0.3 93
2020-03-11 22:00:00 13.7 9 Sudoeste 11 Oeste 0 1022.2 0.6 93
2020-03-11 21:00:00 13.9 6 Sudoeste 9 Sudoeste 0 1021.9 0.5 94
2020-03-11 20:00:00 13.7 6 Oeste 13 Sudoeste 0 1021.9 0.5 91
2020-03-11 19:00:00 14.5 8 Sudoeste 13 Sudoeste 0 1021.6 -0.1 88
2020-03-11 18:00:00 15.8 8 Sudoeste 17 Sudoeste 0 1021.4 -0.5 81
2020-03-11 17:00:00 16.6 9 Sur 13 Sur 0 1021.4 -1.1 76
2020-03-11 16:00:00 16.3 11 Sur 18 Sudoeste 0 1021.7 -1.7 77
2020-03-11 15:00:00 16.4 10 Sur 17 Sur 0 1021.9 -2 75
2020-03-11 14:00:00 16.4 12 Sur 17 Sur 0 1022.5 -1.4 74
2020-03-11 13:00:00 16.2 13 Sudeste 22 Sudeste 0 1023.4 -0.3 73
2020-03-11 12:00:00 16.2 14 Sudeste 22 Sudeste 0 1023.9 0.4 73
2020-03-11 11:00:00 16.2 16 Este 28 Este 0 1023.9 1.1 68
2020-03-11 10:00:00 14.7 8 Norte 21 Norte 0 1023.7 1.4 67
2020-03-11 09:00:00 11.5 15 Norte 21 Norte 0 1023.5 1.3 73
2020-03-11 08:00:00 9.1 17 Norte 24 Norte 0 1022.8 0.9 81
2020-03-11 07:00:00 8.8 17 Norte 24 Norte 0 1022.3 0.6 82
2020-03-11 06:00:00 9.3 15 Norte 24 Norte 0 1022.2 0 82
2020-03-11 05:00:00 9.4 17 Norte 24 Norte 0 1021.9 -0.8 83
2020-03-11 04:00:00 9.8 15 Norte 18 Norte 0 1021.7 -1.2 83
2020-03-11 03:00:00 9.6 9 Noroeste 13 Noroeste 0 1022.2 -1 87
2020-03-11 02:00:00 10.6 8 Norte 13 Norte 0 1022.7 -0.8 86
2020-03-11 01:00:00 10.4 4 Norte 11 Norte 0 1022.9 -0.4 85
2020-03-11 00:00:00 11.3 8 Norte 11 Oeste 0 1023.2 -0.1 84
2020-03-10 23:00:00 11.9 9 Oeste 15 Sudoeste 0 1023.5 0.3 85
2020-03-10 22:00:00 13.1 12 Sudoeste 17 Oeste 0 1023.3 0.2 84
2020-03-10 21:00:00 12.9 12 Oeste 17 Sudoeste 0 1023.3 0.7 83
2020-03-10 20:00:00 13.6 12 Sudoeste 18 Sudoeste 0 1023.2 0.8 81
2020-03-10 19:00:00 13.6 16 Oeste 24 Sudoeste 0 1023.1 0.4 80
2020-03-10 18:00:00 14.1 17 Oeste 28 Oeste 0 1022.6 -0.2 73
2020-03-10 17:00:00 14.4 23 Oeste 33 Oeste 0 1022.4 -0.9 65
2020-03-10 16:00:00 14.7 26 Oeste 42 Sudoeste 0 1022.7 -1.3 64
2020-03-10 15:00:00 15.2 30 Sudoeste 42 Oeste 0 1022.8 -1.5 63
2020-03-10 14:00:00 15.1 24 Sudoeste 32 Sudoeste 0 1023.3 -1.2 58
2020-03-10 13:00:00 15.2 21 Sudoeste 28 Sudoeste 0 1024 -0.6 54
2020-03-10 12:00:00 15 15 Sudoeste 22 Sudoeste 0 1024.3 0.1 54
2020-03-10 11:00:00 15.2 4 Sur 17 Norte 0 1024.5 0.6 50
2020-03-10 10:00:00 13 14 Norte 26 Norte 0 1024.6 1.6 57
2020-03-10 09:00:00 11.2 16 Norte 24 Norte 0 1024.2 1.5 60
2020-03-10 08:00:00 9.6 18 Norte 28 Norte 0 1023.9 1.2 65
2020-03-10 07:00:00 9.7 15 Norte 22 Norte 0 1023 0.8 63
2020-03-10 06:00:00 9.9 15 Norte 24 Norte 0 1022.7 0.4 63
2020-03-10 05:00:00 10.3 15 Norte 26 Norte 0 1022.7 0.4 64
2020-03-10 04:00:00 10.7 17 Norte 22 Norte 0 1022.2 0.6 68
2020-03-10 03:00:00 11.2 14 Norte 21 Norte 0 1022.3 0.8 80
2020-03-10 02:00:00 13.4 5 Sudoeste 15 Sur 0 1022.3 1 69
2020-03-10 01:00:00 13.7 11 Sur 26 Sur 0 1021.6 0.8 70
2020-03-10 00:00:00 14 14 Sur 28 Sur 0 1021.5 0.9 68
2020-03-09 23:00:00 14.1 15 Sur 28 Sudeste 0 1021.3 1.7 73
2020-03-09 22:00:00 13.8 17 Sur 30 Este 0 1020.8 2 75
2020-03-09 21:00:00 13.8 17 Este 30 Este 0 1020.6 2.9 76
2020-03-09 20:00:00 13.5 27 Este 35 Este 0 1019.6 2.5 78
2020-03-09 19:00:00 13.5 32 Este 46 Este 0 1018.8 2.2 79
2020-03-09 18:00:00 14.1 36 Este 48 Este 0 1017.7 0.7 77
2020-03-09 17:00:00 15.7 31 Este 42 Este 0 1017.1 -0.6 68
2020-03-09 16:00:00 20.9 18 Norte 37 Noroeste 0 1016.6 -2.2 29
2020-03-09 15:00:00 18.8 15 Sur 30 Sudeste 0 1017 -2.2 35
2020-03-09 14:00:00 17.3 19 Sur 28 Sur 0 1017.7 -1.8 50
2020-03-09 13:00:00 16.4 15 Sur 28 Sur 0 1018.8 -0.7 53
2020-03-09 12:00:00 17.3 12 Sur 22 Norte 0 1019.2 0 45
2020-03-09 11:00:00 16 13 Norte 22 Norte 0 1019.5 0.5 48
2020-03-09 10:00:00 14.3 16 Norte 24 Norte 0 1019.5 0.8 57
2020-03-09 09:00:00 11.7 13 Norte 21 Norte 0 1019.2 0.8 69
2020-03-09 08:00:00 9.9 15 Norte 24 Norte 0 1019 1.1 75
2020-03-09 07:00:00 9.9 14 Norte 24 Norte 0 1018.7 0.5 75
2020-03-09 06:00:00 9.2 23 Norte 32 Norte 0 1018.4 -0.4 81
2020-03-09 05:00:00 9.6 13 Norte 18 Norte 0 1017.9 -1 84
2020-03-09 04:00:00 10 14 Norte 21 Norte 0 1018.2 -1.2 82
2020-03-09 03:00:00 9.8 14 Norte 18 Norte 0 1018.8 -0.9 82
2020-03-09 02:00:00 10.1 10 Norte 17 Norte 0 1018.9 -1.1 79
2020-03-09 01:00:00 11.1 3 Nordeste 8 Nordeste 0 1019.4 -0.7 73
2020-03-09 00:00:00 13.1 5 Oeste 11 Oeste 0 1019.7 -0.5 88
2020-03-08 23:00:00 12.7 11 Oeste 17 Oeste 0 1020 -0.3 90
2020-03-08 22:00:00 13.1 13 Oeste 21 Oeste 0 1020.1 -0.2 88
2020-03-08 21:00:00 13.6 7 Oeste 13 Noroeste 0 1020.2 0.2 81
2020-03-08 20:00:00 13.7 9 Oeste 24 Oeste 0 1020.3 0.3 78
2020-03-08 19:00:00 14.3 21 Oeste 33 Oeste 0 1020.3 0.2 73
2020-03-08 18:00:00 14.8 22 Oeste 33 Oeste 0 1020 -0.4 71
2020-03-08 17:00:00 15.6 22 Sudoeste 32 Sudoeste 0 1020 -1.1 69
2020-03-08 16:00:00 15.1 23 Sudoeste 30 Sudoeste 0 1020.1 -2 67
2020-03-08 15:00:00 16.7 23 Sudoeste 30 Oeste 0 1020.4 -2.3 49
2020-03-08 14:00:00 15.5 20 Sudoeste 26 Sudoeste 0 1021.1 -2.1 57
2020-03-08 13:00:00 15.6 18 Sudoeste 24 Sudoeste 0 1022.1 -1.3 55
2020-03-08 12:00:00 15.9 13 Sudoeste 21 Oeste 0 1022.7 -0.3 53
2020-03-08 11:00:00 15.7 7 Norte 22 Norte 0 1023.2 0.6 52
2020-03-08 10:00:00 13.1 15 Norte 22 Norte 0 1023.4 1.2 62
2020-03-08 09:00:00 10.3 18 Norte 24 Norte 0 1023 1 72
2020-03-08 08:00:00 8.8 15 Norte 22 Norte 0 1022.6 0.5 80
2020-03-08 07:00:00 8.7 17 Norte 22 Norte 0 1022.2 0.1 82
2020-03-08 06:00:00 9.5 17 Norte 22 Norte 0 1022 -0.8 80
2020-03-08 05:00:00 10.3 15 Norte 21 Norte 0 1022.1 -0.9 79
2020-03-08 04:00:00 10.9 14 Norte 21 Norte 0 1022.1 -1.2 77
2020-03-08 03:00:00 11 15 Norte 22 Norte 0 1022.8 -0.3 76
2020-03-08 02:00:00 11.2 14 Norte 22 Nordeste 0 1023 0.3 75
2020-03-08 01:00:00 11.4 12 Norte 17 Nordeste 0 1023.3 1.1 78
2020-03-08 00:00:00 13.2 12 Sudeste 18 Sudeste 0 1023.1 1.7 72
2020-03-07 23:00:00 13.4 13 Sudeste 22 Sudeste 0 1022.7 2.1 77
2020-03-07 22:00:00 13.6 14 Sudeste 24 Sudeste 0 1022.2 2.8 77
2020-03-07 21:00:00 13.8 16 Sudeste 22 Sudeste 0 1021.4 2.9 75
2020-03-07 20:00:00 14 12 Sudeste 21 Sudoeste 0 1020.6 2.5 73
2020-03-07 19:00:00 14 16 Sudoeste 26 Sudoeste 0 1019.4 1.3 67
2020-03-07 18:00:00 15.1 19 Sudoeste 30 Sudoeste 0 1018.5 0.6 66
2020-03-07 17:00:00 16.3 25 Sudoeste 39 Sudoeste 0 1018.1 -0.1 51
2020-03-07 16:00:00 16.9 26 Sudoeste 41 Sudoeste 0 1018.1 -0.7 43
2020-03-07 15:00:00 18.5 14 Oeste 26 Oeste 0 1017.9 -1.3 24
2020-03-07 14:00:00 18 11 Oeste 35 Sudoeste 0 1018.2 -1 31
2020-03-07 13:00:00 16.2 26 Sudoeste 37 Sudoeste 0 1018.8 -0.2 40
2020-03-07 12:00:00 16 21 Sudoeste 33 Oeste 0 1019.2 0.7 39
2020-03-07 11:00:00 15.3 14 Noroeste 22 Noroeste 0 1019.2 1.7 30
2020-03-07 10:00:00 13.5 14 Noroeste 22 Noroeste 0 1019 2 34
2020-03-07 09:00:00 10.3 10 Noroeste 18 Norte 0 1018.5 2.2 45
2020-03-07 08:00:00 7.3 13 Norte 21 Norte 0 1017.5 1.6 54
2020-03-07 07:00:00 7 9 Norte 11 Norte 0 1017 1.3 52
2020-03-07 06:00:00 7.5 3 Sur 11 Norte 0 1016.3 0.9 47
2020-03-07 05:00:00 6.8 10 Noroeste 11 Noroeste 0 1015.9 0.6 51
2020-03-07 04:00:00 6.8 2 Este 11 Oeste 0 1015.7 0.7 53
2020-03-07 03:00:00 7.2 6 Oeste 21 Noroeste 0 1015.4 1 51
2020-03-07 02:00:00 8.3 17 Noroeste 26 Norte 0 1015.3 1.5 49
2020-03-07 01:00:00 9.3 18 Norte 35 Norte 0 1015 2.3 44
2020-03-07 00:00:00 9.7 24 Norte 41 Noroeste 0 1014.4 3.3 43
2020-03-06 23:00:00 10.1 19 Noroeste 46 Norte 0 1013.8 3.2 43
2020-03-06 22:00:00 10.9 32 Noroeste 59 Noroeste 0 1012.7 3.2 40
2020-03-06 21:00:00 11.3 40 Noroeste 63 Noroeste 0 1011.1 3 42
2020-03-06 20:00:00 11.9 26 Noroeste 54 Noroeste 0 1010.6 3.4 41
2020-03-06 19:00:00 13.2 38 Noroeste 58 Norte 0 1009.5 2.6 36
2020-03-06 18:00:00 15.2 33 Noroeste 52 Noroeste 0 1008.1 2.4 31
2020-03-06 17:00:00 16.3 23 Noroeste 71 Noroeste 0 1007.2 1.3 33
2020-03-06 16:00:00 16 42 Norte 68 Norte 0 1006.9 0.1 30
2020-03-06 15:00:00 17.8 41 Noroeste 55 Norte 0 1005.7 -1.4 30
2020-03-06 14:00:00 17.3 33 Noroeste 50 Norte 0 1005.9 -1.9 32
2020-03-06 13:00:00 16.1 37 Noroeste 59 Oeste 0 1006.8 -1.1 35
2020-03-06 12:00:00 16.9 40 Noroeste 58 Noroeste 0 1007.1 -1 33
2020-03-06 11:00:00 15.8 20 Noroeste 39 Noroeste 0 1007.8 -0.4 38
2020-03-06 10:00:00 14.3 27 Oeste 46 Oeste 0 1007.9 0 40
2020-03-06 09:00:00 11.2 10 Norte 17 Norte 0 1008.1 0.3 53
2020-03-06 08:00:00 9.1 12 Norte 26 Noroeste 0 1008.2 0.6 60
2020-03-06 07:00:00 8.6 12 Nordeste 15 Nordeste 0 1007.9 0.5 61
2020-03-06 06:00:00 8.9 3 Este 21 Norte 0 1007.8 0.2 59
2020-03-06 05:00:00 9.2 13 Norte 17 Norte 0 1007.6 -0.1 56
2020-03-06 04:00:00 9.9 14 Norte 21 Norte 0 1007.4 0.1 54
2020-03-06 03:00:00 10.8 8 Nordeste 21 Nordeste 0 1007.6 0.7 53
2020-03-06 02:00:00 11.4 12 Nordeste 21 Nordeste 0 1007.7 1.4 51
2020-03-06 01:00:00 12.8 6 Norte 21 Noroeste 0 1007.3 1.3 46
2020-03-06 00:00:00 13.6 8 Norte 46 Noroeste 0 1006.9 1.4 44
2020-03-05 23:00:00 14.4 32 Noroeste 50 Oeste 0 1006.3 2.2 43
2020-03-05 22:00:00 15.6 30 Noroeste 42 Noroeste 0 1006 2.2 37
2020-03-05 21:00:00 16.1 12 Noroeste 55 Noroeste 0 1005.5 3.1 40
2020-03-05 20:00:00 17.1 24 Noroeste 46 Noroeste 0 1004.1 1.6 36
2020-03-05 19:00:00 18 33 Noroeste 63 Oeste 0 1003.8 1.2 35
2020-03-05 18:00:00 19.7 40 Noroeste 85 Noroeste 0 1002.4 0.3 35
2020-03-05 17:00:00 18.8 32 Oeste 52 Oeste 0 1002.5 -0.5 50
2020-03-05 16:00:00 19.5 36 Oeste 52 Oeste 0 1002.6 -1.4 53
2020-03-05 15:00:00 18.7 33 Sudoeste 50 Oeste 0 1002.1 -3 61
2020-03-05 14:00:00 18.6 26 Sudoeste 39 Oeste 0 1003 -2.7 56
2020-03-05 13:00:00 18.4 28 Sudoeste 42 Oeste 0 1004 -2.6 63
2020-03-05 12:00:00 17.2 29 Oeste 39 Sudoeste 0 1005.1 -2.8 68
2020-03-05 11:00:00 17.7 30 Oeste 39 Oeste 0 1005.7 -2.4 67
2020-03-05 10:00:00 16.1 25 Oeste 37 Oeste 0 1006.6 -1.9 75
2020-03-05 09:00:00 12.5 6 Norte 11 Sudeste 0 1007.9 -1.5 86
2020-03-05 08:00:00 9.9 0 Calma 5 Norte 0 1008.1 -1.9 92
2020-03-05 07:00:00 9.9 3 Noroeste 8 Noroeste 0 1008.5 -2.5 91
2020-03-05 06:00:00 10.3 5 Noroeste 11 Norte 0 1009.4 -2.6 90
2020-03-05 05:00:00 11 9 Norte 21 Norte 0 1010 -2.9 88
2020-03-05 04:00:00 10.8 10 Norte 17 Norte 0 1011 -2.7 89
2020-03-05 03:00:00 10.8 11 Norte 17 Norte 0 1012 -2.4 89
2020-03-05 02:00:00 11.1 13 Norte 18 Norte 0 1012.9 -1.9 89
2020-03-05 01:00:00 10.7 11 Norte 15 Norte 0 1013.7 -1.6 90
2020-03-05 00:00:00 10.9 9 Norte 13 Norte 0 1014.4 -0.8 89
2020-03-04 23:00:00 11.6 8 Norte 9 Norte 0 1014.8 -0.5 87
2020-03-04 22:00:00 12.7 9 Nordeste 17 Nordeste 0 1015.3 0.6 86
2020-03-04 21:00:00 12.4 13 Este 15 Este 0 1015.2 0.8 88
2020-03-04 20:00:00 12.8 11 Este 18 Este 0 1015.3 1 87
2020-03-04 19:00:00 13.3 15 Este 22 Este 0 1014.7 0.1 84
2020-03-04 18:00:00 14.5 14 Este 18 Este 0 1014.4 -0.6 79
2020-03-04 17:00:00 15.1 13 Este 22 Este 0 1014.3 -1.2 78
2020-03-04 16:00:00 15.8 7 Sudeste 17 Este 0 1014.6 -1.5 75
2020-03-04 15:00:00 15.3 11 Sudeste 18 Sudeste 0 1015 -1.7 74
2020-03-04 14:00:00 15.3 12 Sudeste 22 Sur 0 1015.5 -0.9 66
2020-03-04 13:00:00 15.5 10 Sudeste 18 Sudeste 0 1016.1 -0.3 57
2020-03-04 12:00:00 16.7 10 Sudeste 21 Sudeste 0 1016.7 0.6 47
2020-03-04 11:00:00 17.1 3 Este 17 Nordeste 0 1016.4 0.7 45
2020-03-04 10:00:00 13.8 12 Norte 17 Norte 0 1016.4 1.7 56
2020-03-04 09:00:00 11.5 9 Norte 11 Norte 0 1016.1 1.6 61
2020-03-04 08:00:00 10.5 3 Nordeste 9 Nordeste 0 1015.7 2 60
2020-03-04 07:00:00 9.9 7 Oeste 13 Oeste 0 1014.7 1.5 62
2020-03-04 06:00:00 10.1 9 Noroeste 15 Oeste 0 1014.5 1.5 59
2020-03-04 05:00:00 11.6 9 Sudoeste 15 Oeste 0 1013.7 0.9 52
2020-03-04 04:00:00 10.5 3 Sudeste 11 Oeste 0 1013.2 1.1 59
2020-03-04 03:00:00 11.8 9 Nordeste 15 Nordeste 0 1013 1.2 52
2020-03-04 02:00:00 12.3 8 Este 17 Norte 0 1012.8 2.9 50
2020-03-04 01:00:00 12.7 12 Norte 18 Norte 0 1012.1 3.5 48
2020-03-04 00:00:00 14.2 10 Norte 32 Noroeste 0 1011.8 4.6 42
2020-03-03 23:00:00 15.6 26 Noroeste 50 Noroeste 0 1009.9 4.8 37
2020-03-03 22:00:00 16.1 39 Noroeste 55 Noroeste 0 1008.6 5 39
2020-03-03 21:00:00 16.4 30 Noroeste 52 Noroeste 0 1007.2 4.4 42
2020-03-03 20:00:00 16.6 34 Noroeste 63 Noroeste 0 1005.1 1.9 45
2020-03-03 19:00:00 16.7 49 Noroeste 72 Noroeste 0 1003.6 -0.7 46
2020-03-03 18:00:00 15.4 31 Oeste 52 Noroeste 0 1002.8 -2.5 65
2020-03-03 17:00:00 15.6 32 Sudoeste 50 Sudoeste 0 1003.2 -3.4 65
2020-03-03 16:00:00 14.5 31 Oeste 45 Oeste 0 1004.3 -4.1 63
2020-03-03 15:00:00 14.1 37 Oeste 52 Sudoeste 0 1005.3 -4.8 60
2020-03-03 14:00:00 13.4 32 Oeste 48 Oeste 0 1006.6 -4.2 59
2020-03-03 13:00:00 13.2 35 Oeste 45 Oeste 0 1008.4 -3.5 54
2020-03-03 12:00:00 13.3 31 Oeste 46 Oeste 0 1010.1 -2.5 48
2020-03-03 11:00:00 12.8 30 Oeste 46 Oeste 0 1010.8 -1.4 47
2020-03-03 10:00:00 10.5 6 Norte 13 Norte 0 1011.9 -0.8 51
2020-03-03 09:00:00 10.5 8 Noroeste 15 Norte 0 1012.6 -0.1 48
2020-03-03 08:00:00 9.1 9 Noroeste 21 Oeste 0 1012.2 -0.1 55
2020-03-03 07:00:00 8.6 13 Oeste 21 Noroeste 0 1012.7 1.2 56
2020-03-03 06:00:00 8.9 6 Noroeste 28 Noroeste 0 1012.7 1.3 54
2020-03-03 05:00:00 9.3 15 Oeste 30 Sudoeste 0 1012.3 1 51
2020-03-03 04:00:00 8.4 12 Norte 30 Noroeste 0 1011.5 0.8 56
2020-03-03 03:00:00 9.5 19 Noroeste 32 Noroeste 0 1011.4 1.3 49
2020-03-03 02:00:00 9.9 24 Noroeste 46 Noroeste 0 1011.3 1.9 47
2020-03-03 01:00:00 9.8 12 Norte 28 Nordeste 0 1010.7 2.8 47
2020-03-03 00:00:00 10.2 17 Norte 39 Noroeste 0 1010.1 4.5 46